Nearby METAR Reports

 

KOJC - Olathe/Executive, Kansas, USA
Distance from station: N 14mi, 23km
Updated: Tue, 25-Jun-2024 4:53pm CDT
Clear
Clear
 Wind from SSW
Wind: SSW 9 mph , 15 km/h, Gust: 23 mph , 37 km/h
Temperature: 91°F , 33°C
Heat Index: 100°F , 38°C
Dew Point: 73°F , 23°C
Humidity: 56%
Barometer: 29.83 inHg , 1010.2 hPa
Clouds: Clear
Visibility: 10 miles , 16 km
2024/06/25 21:53 KOJC 252153Z 20008G20KT 10SM CLR 33/23 A2983 RMK AO2 SLP086 T03330228
KIXD - Olathe/Industria, Kansas, USA
Distance from station: NW 15mi, 25km
Updated: Tue, 25-Jun-2024 4:53pm CDT
Clear
Clear
 Wind from S
Wind: S 18 mph , 30 km/h, Gust: 25 mph , 41 km/h
Temperature: 95°F , 35°C
Heat Index: 103°F , 39°C
Dew Point: 72°F , 22°C
Humidity: 47%
Barometer: 29.84 inHg , 1010.5 hPa
Clouds: Clear
Visibility: 10 miles , 16 km
2024/06/25 21:53 KIXD 252153Z 19016G22KT 10SM CLR 35/22 A2984 RMK AO2 SLP087 T03500222
 
KLXT - Lees Summit Muni, Missouri, USA
Distance from station: NE 28mi, 46km
Updated: Tue, 25-Jun-2024 4:53pm CDT
Clear
Clear
 Wind from S
Wind: S 14 mph , 22 km/h
Temperature: 90°F , 32°C
Heat Index: 101°F , 38°C
Dew Point: 75°F , 24°C
Humidity: 63%
Barometer: 29.84 inHg , 1010.5 hPa
Clouds: Clear
Visibility: 10 miles , 16 km
2024/06/25 21:53 KLXT 252153Z AUTO 19012KT 10SM CLR 32/24 A2984 RMK AO2 SLP093 T03220239
KMKC - Kansas City/Dntn, Missouri, USA
Distance from station: N 33mi, 53km
Updated: Tue, 25-Jun-2024 4:54pm CDT
Clear
Clear
 Wind from WSW
Wind: WSW 13 mph , 20 km/h
Temperature: 91°F , 33°C
Heat Index: 100°F , 38°C
Dew Point: 73°F , 23°C
Humidity: 56%
Barometer: 29.81 inHg , 1009.5 hPa
Clouds: Clear
Visibility: 10 miles , 16 km
2024/06/25 21:54 KMKC 252154Z 24011KT 10SM CLR 33/23 A2981 RMK AO2 SLP082 T03330233
 
KLWC - Lawrence, Kansas, USA
Distance from station: NW 38mi, 61km
Updated: Tue, 25-Jun-2024 4:52pm CDT
Clear
Clear
 Wind from SSW
Wind: SSW 12 mph , 19 km/h, Gust: 22 mph , 35 km/h
Temperature: 95°F , 35°C
Heat Index: 107°F , 42°C
Dew Point: 75°F , 24°C
Humidity: 53%
Barometer: 29.80 inHg , 1009.1 hPa
Clouds: Clear
Visibility: 10 miles , 16 km
2024/06/25 21:52 KLWC 252152Z AUTO 21010G19KT 10SM CLR 35/24 A2980 RMK AO1 SLP081 T03500244
KFOE - Topeka/Forbes, Kansas, USA
Distance from station: WNW 43mi, 70km
Updated: Tue, 25-Jun-2024 4:53pm CDT
Clear
Clear
 Wind from S
Wind: S 17 mph , 28 km/h, Gust: 23 mph , 37 km/h
Temperature: 93°F , 34°C
Heat Index: 105°F , 41°C
Dew Point: 75°F , 24°C
Humidity: 56%
Barometer: 29.81 inHg , 1009.5 hPa
Clouds: Clear
Visibility: 10 miles , 16 km
2024/06/25 21:53 KFOE 252153Z 17015G20KT 10SM CLR 34/24 A2981 RMK AO2 SLP080 T03390239 $
 
KMCI - Kansas City/Intl, Missouri, USA
Distance from station: N 45mi, 73km
Updated: Tue, 25-Jun-2024 4:53pm CDT
Partly cloudy
Partly cloudy
 Wind from SSW
Wind: SSW 12 mph , 19 km/h
Temperature: 90°F , 32°C
Heat Index: 101°F , 38°C
Dew Point: 75°F , 24°C
Humidity: 63%
Barometer: 29.82 inHg , 1009.8 hPa
Clouds: Partly cloudy
Visibility: 10 miles , 16 km
Cloud details: Partly cloudy 18000 ft
2024/06/25 21:53 KMCI 252153Z 21010KT 10SM SCT180 32/24 A2982 RMK AO2 SLP084 T03220239
KRCM - Warrensburg Skyh, Missouri, USA
Distance from station: ENE 49mi, 80km
Updated: Tue, 25-Jun-2024 5:35pm CDT
Light rain, Clear
Light rain, Clear
 Wind from SSW
Wind: SSW 8 mph , 13 km/h
Temperature: 86°F , 30°C
Heat Index: 92°F , 33°C
Dew Point: 72°F , 22°C
Humidity: 62%
Barometer: 29.83 inHg , 1010.2 hPa
Summary: Light rain
Clouds: Clear
Visibility: 10 miles , 16 km
2024/06/25 22:35 KRCM 252235Z AUTO 20007KT 10SM -RA CLR 30/22 A2983 RMK AO2 LTG DSNT N AND NE